This is the latest recevied weather packets stored in our database for station/object KO5S. If no packets are shown the sender has not sent any weather packets the latest 10 day(s).
| Time | Temp. | Humidity | Pressure | Rain* | Wind** | Luminosity | Snow |
|---|---|---|---|---|---|---|---|
| 1777368496 | 19.44° C | 94% | 1013.3 hPa | 0 mm | - | - | - |
| 1777367295 | 19.44° C | 93% | 1013.1 hPa | 0 mm | - | - | - |
| 1777366696 | 19.44° C | 93% | 1013 hPa | 0 mm | - | - | - |
| 1777361895 | 19.44° C | 93% | 1012.7 hPa | 0 mm | - | - | - |
| 1777360695 | 19.44° C | 93% | 1012.8 hPa | 0 mm | - | - | - |
| 1777356497 | 20° C | 93% | 1013.1 hPa | 0 mm | - | - | - |
| 1777353495 | 20.56° C | 92% | 1013.3 hPa | 0 mm | - | - | - |
| 1777352297 | 20.56° C | 92% | 1013.5 hPa | 0 mm | - | - | - |
| 1777351097 | 20.56° C | 92% | 1013.4 hPa | 0 mm | - | - | - |
| 1777350497 | 21.11° C | 92% | 1013.3 hPa | 0 mm | - | - | - |
| 1777342096 | 22.22° C | 89% | 1012.4 hPa | 0 mm | - | - | - |
| 1777341497 | 22.22° C | 89% | 1012.3 hPa | 0 mm | - | - | - |
| 1777340896 | 22.22° C | 89% | 1012.3 hPa | 0 mm | - | - | - |
| 1777332496 | 25.56° C | 76% | 1011.6 hPa | 0 mm | - | - | - |
| 1777328296 | 27.78° C | 69% | 1011.7 hPa | 0 mm | - | - | - |
| 1777321117 | 29.44° C | 63% | 1011.5 hPa | 0 mm | - | - | - |
| 1777318096 | 29.44° C | 63% | 1011.7 hPa | 0 mm | - | - | - |
| 1777315096 | 30.56° C | 66% | 1011.6 hPa | 0 mm | - | - | - |
| 1777312696 | 30.56° C | 62% | 1011.4 hPa | 0 mm | - | - | - |
| 1777303096 | 28.33° C | 74% | 1011.9 hPa | 0 mm | - | - | - |
| 1777298317 | 23.89° C | 91% | 1011.8 hPa | 0 mm | - | - | - |
| 1777293516 | 20° C | 94% | 1011.3 hPa | 0 mm | - | - | - |
| 1777289296 | 17.22° C | 94% | 1010.9 hPa | 0 mm | - | - | - |
| 1777283316 | 17.78° C | 93% | 1009.9 hPa | 0.25 mm | - | - | - |
* Rain latest hour (hover to see other rain measurements)
** Current wind speed in m/s (hover to see current wind gust speed)